sensor_id;sensor_type;location;lat;lon;timestamp;P1;P2;P0
75187;PMS7003;63762;51.334;22.108;2023-07-09T00:03:04;5;4;3
75187;PMS7003;63762;51.334;22.108;2023-07-09T00:13:11;3;3;2
75187;PMS7003;63762;51.334;22.108;2023-07-09T00:23:19;4;4;3
75187;PMS7003;63762;51.334;22.108;2023-07-09T00:33:26;9;7;5
75187;PMS7003;63762;51.334;22.108;2023-07-09T00:43:34;6;5;3
75187;PMS7003;63762;51.334;22.108;2023-07-09T00:53:40;1;1;1
75187;PMS7003;63762;51.334;22.108;2023-07-09T01:03:51;2;2;1
75187;PMS7003;63762;51.334;22.108;2023-07-09T01:14:00;2;2;2
75187;PMS7003;63762;51.334;22.108;2023-07-09T01:34:14;5;5;3
75187;PMS7003;63762;51.334;22.108;2023-07-09T01:44:16;7;4;3
75187;PMS7003;63762;51.334;22.108;2023-07-09T01:54:23;0;0;0
75187;PMS7003;63762;51.334;22.108;2023-07-09T02:04:30;6;4;2
75187;PMS7003;63762;51.334;22.108;2023-07-09T02:14:37;2;2;0
75187;PMS7003;63762;51.334;22.108;2023-07-09T02:24:44;5;1;1
75187;PMS7003;63762;51.334;22.108;2023-07-09T02:34:52;5;2;1
75187;PMS7003;63762;51.334;22.108;2023-07-09T02:44:59;6;3;3
75187;PMS7003;63762;51.334;22.108;2023-07-09T02:55:06;4;4;3
75187;PMS7003;63762;51.334;22.108;2023-07-09T03:05:13;8;3;2
75187;PMS7003;63762;51.334;22.108;2023-07-09T03:15:20;5;5;2
75187;PMS7003;63762;51.334;22.108;2023-07-09T03:25:27;7;6;3
75187;PMS7003;63762;51.334;22.108;2023-07-09T03:35:34;7;4;3
75187;PMS7003;63762;51.334;22.108;2023-07-09T03:45:43;4;4;2
75187;PMS7003;63762;51.334;22.108;2023-07-09T03:55:51;4;3;3
75187;PMS7003;63762;51.334;22.108;2023-07-09T04:05:55;4;4;3
75187;PMS7003;63762;51.334;22.108;2023-07-09T04:16:02;7;4;3
75187;PMS7003;63762;51.334;22.108;2023-07-09T04:26:13;9;4;3
75187;PMS7003;63762;51.334;22.108;2023-07-09T04:36:17;2;2;2
75187;PMS7003;63762;51.334;22.108;2023-07-09T04:46:24;4;3;2
75187;PMS7003;63762;51.334;22.108;2023-07-09T04:56:31;2;2;2
75187;PMS7003;63762;51.334;22.108;2023-07-09T05:06:38;4;4;3
75187;PMS7003;63762;51.334;22.108;2023-07-09T05:16:45;5;5;4
75187;PMS7003;63762;51.334;22.108;2023-07-09T05:26:52;5;4;4
75187;PMS7003;63762;51.334;22.108;2023-07-09T05:36:59;8;8;7
75187;PMS7003;63762;51.334;22.108;2023-07-09T05:47:07;11;10;9
75187;PMS7003;63762;51.334;22.108;2023-07-09T05:57:14;14;12;10
75187;PMS7003;63762;51.334;22.108;2023-07-09T06:07:21;18;18;11
75187;PMS7003;63762;51.334;22.108;2023-07-09T06:17:28;18;13;8
75187;PMS7003;63762;51.334;22.108;2023-07-09T06:27:35;6;6;4
75187;PMS7003;63762;51.334;22.108;2023-07-09T06:37:42;19;17;11
75187;PMS7003;63762;51.334;22.108;2023-07-09T06:47:50;11;11;5
75187;PMS7003;63762;51.334;22.108;2023-07-09T06:57:57;14;8;6
75187;PMS7003;63762;51.334;22.108;2023-07-09T07:08:04;6;6;6
75187;PMS7003;63762;51.334;22.108;2023-07-09T07:18:11;8;8;6
75187;PMS7003;63762;51.334;22.108;2023-07-09T07:28:18;8;7;6
75187;PMS7003;63762;51.334;22.108;2023-07-09T07:38:25;3;3;3
75187;PMS7003;63762;51.334;22.108;2023-07-09T07:48:32;10;4;3
75187;PMS7003;63762;51.334;22.108;2023-07-09T07:58:39;8;8;6
75187;PMS7003;63762;51.334;22.108;2023-07-09T08:08:46;3;3;2
75187;PMS7003;63762;51.334;22.108;2023-07-09T08:18:53;5;5;4
75187;PMS7003;63762;51.334;22.108;2023-07-09T08:29:00;3;3;2
75187;PMS7003;63762;51.334;22.108;2023-07-09T08:39:08;5;5;2
75187;PMS7003;63762;51.334;22.108;2023-07-09T08:49:17;1;1;1
75187;PMS7003;63762;51.334;22.108;2023-07-09T08:59:22;2;2;1
75187;PMS7003;63762;51.334;22.108;2023-07-09T09:09:33;2;2;1
75187;PMS7003;63762;51.334;22.108;2023-07-09T09:29:54;1;1;1
75187;PMS7003;63762;51.334;22.108;2023-07-09T09:39:55;2;1;1
75187;PMS7003;63762;51.334;22.108;2023-07-09T09:49:59;3;3;2
75187;PMS7003;63762;51.334;22.108;2023-07-09T10:00:05;2;2;1
75187;PMS7003;63762;51.334;22.108;2023-07-09T10:10:13;4;4;3
75187;PMS7003;63762;51.334;22.108;2023-07-09T10:40:51;1;1;1
75187;PMS7003;63762;51.334;22.108;2023-07-09T10:50:55;2;2;1
75187;PMS7003;63762;51.334;22.108;2023-07-09T11:00:57;2;2;1
75187;PMS7003;63762;51.334;22.108;2023-07-09T11:11:01;1;1;0
75187;PMS7003;63762;51.334;22.108;2023-07-09T11:21:06;3;1;1
75187;PMS7003;63762;51.334;22.108;2023-07-09T11:51:40;1;1;0
75187;PMS7003;63762;51.334;22.108;2023-07-09T12:01:49;6;0;0
75187;PMS7003;63762;51.334;22.108;2023-07-09T12:11:55;0;0;0
75187;PMS7003;63762;51.334;22.108;2023-07-09T12:21:57;1;1;1
75187;PMS7003;63762;51.334;22.108;2023-07-09T12:32:00;0;0;0
75187;PMS7003;63762;51.334;22.108;2023-07-09T12:42:14;0;0;0
75187;PMS7003;63762;51.334;22.108;2023-07-09T12:52:18;0;0;0
75187;PMS7003;63762;51.334;22.108;2023-07-09T13:02:22;0;0;0
75187;PMS7003;63762;51.334;22.108;2023-07-09T13:12:29;0;0;0
75187;PMS7003;63762;51.334;22.108;2023-07-09T13:22:31;0;0;0
75187;PMS7003;63762;51.334;22.108;2023-07-09T13:32:34;0;0;0
75187;PMS7003;63762;51.334;22.108;2023-07-09T13:42:44;0;0;0
75187;PMS7003;63762;51.334;22.108;2023-07-09T13:52:49;0;0;0
75187;PMS7003;63762;51.334;22.108;2023-07-09T14:02:55;0;0;0
75187;PMS7003;63762;51.334;22.108;2023-07-09T14:16:12;0;0;0
75187;PMS7003;63762;51.334;22.108;2023-07-09T14:26:19;1;0;0
75187;PMS7003;63762;51.334;22.108;2023-07-09T14:36:26;0;0;0
75187;PMS7003;63762;51.334;22.108;2023-07-09T14:46:33;0;0;0
75187;PMS7003;63762;51.334;22.108;2023-07-09T14:56:40;0;0;0
75187;PMS7003;63762;51.334;22.108;2023-07-09T15:06:48;0;0;0
75187;PMS7003;63762;51.334;22.108;2023-07-09T15:16:54;0;0;0
75187;PMS7003;63762;51.334;22.108;2023-07-09T15:27:01;0;0;0
75187;PMS7003;63762;51.334;22.108;2023-07-09T15:37:12;0;0;0
75187;PMS7003;63762;51.334;22.108;2023-07-09T15:47:17;0;0;0
75187;PMS7003;63762;51.334;22.108;2023-07-09T15:57:23;0;0;0
75187;PMS7003;63762;51.334;22.108;2023-07-09T16:07:30;0;0;0
75187;PMS7003;63762;51.334;22.108;2023-07-09T16:17:37;0;0;0
75187;PMS7003;63762;51.334;22.108;2023-07-09T16:27:45;0;0;0
75187;PMS7003;63762;51.334;22.108;2023-07-09T16:37:51;0;0;0
75187;PMS7003;63762;51.334;22.108;2023-07-09T16:47:58;3;0;0
75187;PMS7003;63762;51.334;22.108;2023-07-09T16:58:08;0;0;0
75187;PMS7003;63762;51.334;22.108;2023-07-09T17:08:17;0;0;0
75187;PMS7003;63762;51.334;22.108;2023-07-09T17:18:21;0;0;0
75187;PMS7003;63762;51.334;22.108;2023-07-09T17:28:27;0;0;0
75187;PMS7003;63762;51.334;22.108;2023-07-09T17:38:35;0;0;0
75187;PMS7003;63762;51.334;22.108;2023-07-09T17:48:41;0;0;0
75187;PMS7003;63762;51.334;22.108;2023-07-09T17:58:48;1;1;0
75187;PMS7003;63762;51.334;22.108;2023-07-09T18:08:55;0;0;0
75187;PMS7003;63762;51.334;22.108;2023-07-09T18:19:02;0;0;0
75187;PMS7003;63762;51.334;22.108;2023-07-09T18:39:22;0;0;0
75187;PMS7003;63762;51.334;22.108;2023-07-09T18:49:24;0;0;0
75187;PMS7003;63762;51.334;22.108;2023-07-09T18:59:31;0;0;0
75187;PMS7003;63762;51.334;22.108;2023-07-09T19:09:38;0;0;0
75187;PMS7003;63762;51.334;22.108;2023-07-09T19:19:45;0;0;0
75187;PMS7003;63762;51.334;22.108;2023-07-09T19:29:52;0;0;0
75187;PMS7003;63762;51.334;22.108;2023-07-09T19:39:59;0;0;0
75187;PMS7003;63762;51.334;22.108;2023-07-09T19:50:16;2;2;1
75187;PMS7003;63762;51.334;22.108;2023-07-09T20:00:22;0;0;0
75187;PMS7003;63762;51.334;22.108;2023-07-09T20:10:24;3;1;0
75187;PMS7003;63762;51.334;22.108;2023-07-09T20:20:28;0;0;0
75187;PMS7003;63762;51.334;22.108;2023-07-09T20:30:35;0;0;0
75187;PMS7003;63762;51.334;22.108;2023-07-09T20:40:42;1;0;0
75187;PMS7003;63762;51.334;22.108;2023-07-09T20:50:49;0;0;0
75187;PMS7003;63762;51.334;22.108;2023-07-09T21:00:57;0;0;0
75187;PMS7003;63762;51.334;22.108;2023-07-09T21:11:03;3;0;0
75187;PMS7003;63762;51.334;22.108;2023-07-09T21:21:10;0;0;0
75187;PMS7003;63762;51.334;22.108;2023-07-09T21:31:18;0;0;0
75187;PMS7003;63762;51.334;22.108;2023-07-09T21:41:25;0;0;0
75187;PMS7003;63762;51.334;22.108;2023-07-09T21:51:32;0;0;0
75187;PMS7003;63762;51.334;22.108;2023-07-09T22:01:39;0;0;0
75187;PMS7003;63762;51.334;22.108;2023-07-09T22:11:46;1;0;0
75187;PMS7003;63762;51.334;22.108;2023-07-09T22:21:53;0;0;0
75187;PMS7003;63762;51.334;22.108;2023-07-09T22:32:00;1;1;1
75187;PMS7003;63762;51.334;22.108;2023-07-09T22:42:07;0;0;0
75187;PMS7003;63762;51.334;22.108;2023-07-09T22:52:14;0;0;0
75187;PMS7003;63762;51.334;22.108;2023-07-09T23:02:22;0;0;0
75187;PMS7003;63762;51.334;22.108;2023-07-09T23:12:29;0;0;0
75187;PMS7003;63762;51.334;22.108;2023-07-09T23:22:36;0;0;0
75187;PMS7003;63762;51.334;22.108;2023-07-09T23:32:43;0;0;0
75187;PMS7003;63762;51.334;22.108;2023-07-09T23:42:50;1;1;1
75187;PMS7003;63762;51.334;22.108;2023-07-09T23:52:57;1;0;0
